Time;durP1;ratioP1;P1;durP2;ratioP2;P2;SDS_P1;SDS_P2;PMS_P1;PMS_P2;Temp;Humidity;BMP_temperature;BMP_pressure;BME280_temperature;BME280_humidity;BME280_pressure;Samples;Min_cycle;Max_cycle;Signal;HPM_P1;HPM_P2
2021/09/18 00:00:53;;;;;;;15.13;10.20;;;;;;;;;;5112328;28;20016;-73
2021/09/18 00:03:19;;;;;;;10.93;9.85;;;;;;;;;;5111490;28;20048;-74
2021/09/18 00:05:45;;;;;;;12.32;9.95;;;;;;;;;;5104867;28;20031;-75
2021/09/18 00:08:11;;;;;;;11.02;9.60;;;;;;;;;;5112604;28;20024;-75
2021/09/18 00:10:37;;;;;;;10.98;9.98;;;;;;;;;;5111762;28;20396;-75
2021/09/18 00:13:04;;;;;;;10.50;9.50;;;;;;;;;;5112989;28;20065;-75
2021/09/18 00:15:30;;;;;;;10.40;9.02;;;;;;;;;;5111736;28;20019;-74
2021/09/18 00:17:57;;;;;;;12.38;9.50;;;;;;;;;;5108458;28;20024;-75
2021/09/18 00:20:23;;;;;;;9.35;8.45;;;;;;;;;;5112467;28;20110;-75
2021/09/18 00:22:49;;;;;;;8.93;8.07;;;;;;;;;;5112612;28;20146;-75
2021/09/18 00:25:15;;;;;;;9.00;8.10;;;;;;;;;;5112764;28;20380;-74
2021/09/18 00:27:42;;;;;;;9.00;8.05;;;;;;;;;;5113563;28;20036;-75
2021/09/18 00:30:09;;;;;;;8.63;7.82;;;;;;;;;;5091901;28;20115;-74
2021/09/18 00:32:35;;;;;;;10.10;8.00;;;;;;;;;;5112333;28;20120;-74
2021/09/18 00:35:05;;;;;;;10.20;7.80;;;;;;;;;;5109934;28;20026;-75
2021/09/18 00:37:31;;;;;;;8.88;7.97;;;;;;;;;;5112108;28;20106;-73
2021/09/18 00:39:57;;;;;;;8.23;7.43;;;;;;;;;;5112509;28;20069;-75
2021/09/18 00:42:23;;;;;;;8.35;7.50;;;;;;;;;;5113275;28;20016;-75
2021/09/18 00:44:51;;;;;;;9.13;8.27;;;;;;;;;;5112137;28;20042;-73
2021/09/18 00:47:17;;;;;;;8.50;7.22;;;;;;;;;;5112024;28;20069;-74
2021/09/18 00:49:43;;;;;;;8.48;7.65;;;;;;;;;;5111709;28;20084;-74
2021/09/18 00:52:09;;;;;;;8.15;7.38;;;;;;;;;;5112049;28;20110;-75
2021/09/18 00:54:36;;;;;;;8.57;7.60;;;;;;;;;;5115533;28;20016;-75
2021/09/18 00:57:03;;;;;;;8.13;7.32;;;;;;;;;;5094076;28;20445;-75
2021/09/18 00:59:30;;;;;;;8.90;7.30;;;;;;;;;;5111992;28;20080;-72
2021/09/18 01:01:56;;;;;;;8.45;7.45;;;;;;;;;;5112092;28;20549;-74
2021/09/18 01:04:24;;;;;;;9.60;7.70;;;;;;;;;;5111077;28;20080;-73
2021/09/18 01:06:50;;;;;;;9.48;8.20;;;;;;;;;;5112161;28;20019;-75
2021/09/18 01:09:17;;;;;;;8.15;7.35;;;;;;;;;;5111565;28;20031;-70
2021/09/18 01:11:45;;;;;;;10.48;8.23;;;;;;;;;;5112111;28;20038;-73
2021/09/18 01:14:11;;;;;;;8.35;7.43;;;;;;;;;;5112314;28;20656;-75
2021/09/18 01:16:37;;;;;;;9.10;7.88;;;;;;;;;;5111474;28;20042;-74
2021/09/18 01:19:04;;;;;;;8.90;7.22;;;;;;;;;;5110762;28;20020;-75
2021/09/18 01:21:30;;;;;;;8.63;7.72;;;;;;;;;;5111549;28;20040;-74
2021/09/18 01:23:56;;;;;;;10.50;7.80;;;;;;;;;;5111676;28;20505;-75
2021/09/18 01:26:32;;;;;;;9.27;8.23;;;;;;;;;;5113477;28;20027;-75
2021/09/18 01:29:01;;;;;;;10.73;8.35;;;;;;;;;;5115703;28;20024;-75
2021/09/18 01:31:27;;;;;;;9.40;8.40;;;;;;;;;;5113980;28;20170;-74
2021/09/18 01:33:54;;;;;;;8.35;7.55;;;;;;;;;;5115595;28;20554;-74
2021/09/18 01:36:20;;;;;;;8.65;7.78;;;;;;;;;;5115332;28;20031;-73
2021/09/18 01:38:49;;;;;;;9.40;8.07;;;;;;;;;;5115588;28;20019;-75
2021/09/18 01:41:15;;;;;;;8.35;7.45;;;;;;;;;;5111878;28;20015;-75
2021/09/18 01:43:42;;;;;;;9.10;8.02;;;;;;;;;;5115466;28;20027;-75
2021/09/18 01:46:08;;;;;;;9.43;7.75;;;;;;;;;;5114968;28;20016;-74
2021/09/18 01:48:34;;;;;;;9.45;7.90;;;;;;;;;;5115317;28;20444;-70
2021/09/18 01:51:06;;;;;;;9.02;7.43;;;;;;;;;;5115571;28;20107;-71
2021/09/18 01:53:34;;;;;;;8.85;7.75;;;;;;;;;;5115549;28;20084;-74
2021/09/18 01:56:00;;;;;;;8.90;7.43;;;;;;;;;;5114820;28;20023;-74
2021/09/18 01:58:26;;;;;;;9.70;8.02;;;;;;;;;;5114460;28;20023;-74
2021/09/18 02:00:53;;;;;;;9.32;7.90;;;;;;;;;;5114686;28;20028;-74
2021/09/18 02:03:19;;;;;;;10.05;7.88;;;;;;;;;;5115205;28;20384;-72
2021/09/18 02:05:46;;;;;;;8.70;7.78;;;;;;;;;;5114686;28;20102;-75
2021/09/18 02:08:16;;;;;;;10.68;8.00;;;;;;;;;;5115557;28;20515;-75
2021/09/18 02:10:43;;;;;;;8.73;7.80;;;;;;;;;;5113568;28;20069;-75
2021/09/18 02:13:10;;;;;;;9.13;7.47;;;;;;;;;;5115028;28;20039;-74
2021/09/18 02:15:36;;;;;;;9.27;7.85;;;;;;;;;;5114922;28;20015;-74
2021/09/18 02:18:02;;;;;;;10.13;7.88;;;;;;;;;;5109774;28;20372;-75
2021/09/18 02:20:29;;;;;;;10.40;7.88;;;;;;;;;;5114281;28;20042;-75
2021/09/18 02:22:55;;;;;;;10.77;8.45;;;;;;;;;;5114695;28;20817;-75
2021/09/18 02:25:22;;;;;;;9.55;8.15;;;;;;;;;;5115300;28;20024;-75
2021/09/18 02:27:48;;;;;;;10.60;9.35;;;;;;;;;;5114623;28;20055;-74
2021/09/18 02:30:19;;;;;;;11.00;9.27;;;;;;;;;;5115263;28;20107;-75
2021/09/18 02:32:46;;;;;;;9.05;8.13;;;;;;;;;;5096399;28;20515;-75
2021/09/18 02:35:13;;;;;;;9.32;8.38;;;;;;;;;;5107183;28;20023;-74
2021/09/18 02:37:39;;;;;;;9.40;8.50;;;;;;;;;;5113573;28;20388;-75
2021/09/18 02:40:06;;;;;;;11.25;8.38;;;;;;;;;;5114429;28;20032;-74
2021/09/18 02:42:33;;;;;;;10.43;7.78;;;;;;;;;;5114355;28;20016;-75
2021/09/18 02:44:59;;;;;;;9.60;8.38;;;;;;;;;;5114468;28;20032;-75
2021/09/18 02:47:25;;;;;;;9.18;8.10;;;;;;;;;;5114565;28;20350;-75
2021/09/18 02:49:51;;;;;;;9.77;8.05;;;;;;;;;;5114429;28;20028;-72
2021/09/18 02:52:17;;;;;;;9.13;8.15;;;;;;;;;;5115503;27;20035;-74
2021/09/18 02:54:43;;;;;;;11.20;8.48;;;;;;;;;;5114454;28;20051;-74
2021/09/18 02:57:09;;;;;;;10.25;8.32;;;;;;;;;;5114512;28;20041;-76
2021/09/18 02:59:35;;;;;;;9.20;8.27;;;;;;;;;;5114301;28;20465;-74
2021/09/18 03:02:04;;;;;;;10.73;8.15;;;;;;;;;;5107967;28;20036;-74
2021/09/18 03:04:30;;;;;;;8.70;7.70;;;;;;;;;;5113826;28;20024;-75
2021/09/18 03:06:56;;;;;;;9.40;8.20;;;;;;;;;;5114011;28;20055;-75
2021/09/18 03:09:22;;;;;;;9.20;8.20;;;;;;;;;;5114234;28;20061;-75
2021/09/18 03:11:48;;;;;;;9.63;7.70;;;;;;;;;;5113241;28;20044;-75
2021/09/18 03:14:14;;;;;;;16.23;8.20;;;;;;;;;;5113983;28;20426;-75
2021/09/18 03:16:40;;;;;;;9.38;8.10;;;;;;;;;;5113714;28;20509;-75
2021/09/18 03:19:06;;;;;;;8.18;7.38;;;;;;;;;;5112063;28;20020;-75
2021/09/18 03:21:34;;;;;;;11.02;7.88;;;;;;;;;;5113348;28;20120;-75
2021/09/18 03:24:00;;;;;;;10.70;7.57;;;;;;;;;;5114513;28;20068;-75
2021/09/18 03:26:27;;;;;;;11.77;7.80;;;;;;;;;;5114035;28;20552;-75
2021/09/18 03:28:55;;;;;;;10.95;8.00;;;;;;;;;;5114029;28;20024;-74
2021/09/18 03:31:21;;;;;;;10.65;7.95;;;;;;;;;;5112349;28;20031;-73
2021/09/18 03:33:47;;;;;;;11.32;8.20;;;;;;;;;;5113131;28;20070;-74
2021/09/18 03:36:13;;;;;;;11.77;7.85;;;;;;;;;;5113634;28;20048;-75
2021/09/18 03:38:39;;;;;;;8.80;7.97;;;;;;;;;;5112534;28;20031;-74
2021/09/18 03:41:05;;;;;;;8.75;7.55;;;;;;;;;;5112978;28;20028;-75
2021/09/18 03:43:31;;;;;;;8.85;7.70;;;;;;;;;;5112188;28;20066;-72
2021/09/18 03:45:57;;;;;;;9.32;7.60;;;;;;;;;;5113658;28;20358;-73
2021/09/18 03:48:23;;;;;;;10.02;7.82;;;;;;;;;;5112318;28;20080;-74
2021/09/18 03:50:49;;;;;;;9.15;7.82;;;;;;;;;;5112155;28;20039;-72
2021/09/18 03:53:15;;;;;;;9.40;7.70;;;;;;;;;;5112294;28;20036;-74
2021/09/18 03:55:41;;;;;;;8.65;7.85;;;;;;;;;;5113335;28;20058;-75
2021/09/18 03:58:08;;;;;;;8.65;7.78;;;;;;;;;;5112889;28;20039;-74
2021/09/18 04:00:34;;;;;;;10.32;8.80;;;;;;;;;;5114907;28;20102;-74
2021/09/18 04:03:00;;;;;;;10.40;7.63;;;;;;;;;;5110894;28;20059;-75
2021/09/18 04:05:26;;;;;;;9.80;8.18;;;;;;;;;;5111006;28;20023;-75
2021/09/18 04:07:52;;;;;;;11.18;8.50;;;;;;;;;;5112375;28;20154;-74
2021/09/18 04:10:18;;;;;;;11.57;8.13;;;;;;;;;;5112543;28;20027;-75
2021/09/18 04:12:44;;;;;;;9.32;8.10;;;;;;;;;;5111584;28;20114;-74
2021/09/18 04:15:10;;;;;;;10.00;8.18;;;;;;;;;;5112380;28;20035;-72
2021/09/18 04:17:36;;;;;;;9.70;8.68;;;;;;;;;;5107256;28;20497;-75
2021/09/18 04:20:03;;;;;;;10.30;7.85;;;;;;;;;;5112018;28;20020;-74
2021/09/18 04:22:29;;;;;;;9.43;8.32;;;;;;;;;;5117742;27;20027;-66
2021/09/18 04:24:55;;;;;;;10.43;9.25;;;;;;;;;;5112575;28;20047;-72
2021/09/18 04:27:21;;;;;;;13.82;9.00;;;;;;;;;;5112725;28;20020;-74
2021/09/18 04:29:47;;;;;;;12.57;8.18;;;;;;;;;;5112318;28;20027;-72
2021/09/18 04:32:13;;;;;;;12.07;8.50;;;;;;;;;;5118051;27;20054;-66
2021/09/18 04:34:39;;;;;;;10.50;8.60;;;;;;;;;;5111089;28;20019;-74
2021/09/18 04:37:05;;;;;;;11.80;9.40;;;;;;;;;;5112355;28;20030;-74
2021/09/18 04:39:31;;;;;;;12.68;9.18;;;;;;;;;;5112661;28;20039;-74
2021/09/18 04:42:00;;;;;;;10.27;9.20;;;;;;;;;;5093994;28;20033;-74
2021/09/18 04:44:27;;;;;;;10.75;8.30;;;;;;;;;;5111967;28;20035;-75
2021/09/18 04:46:53;;;;;;;10.20;9.20;;;;;;;;;;5111959;28;20028;-71
2021/09/18 04:49:19;;;;;;;12.18;9.32;;;;;;;;;;5093779;28;20043;-73
2021/09/18 04:51:45;;;;;;;12.50;9.25;;;;;;;;;;5110515;28;20041;-75
2021/09/18 04:54:11;;;;;;;13.82;9.40;;;;;;;;;;5109655;28;20058;-69
2021/09/18 04:56:37;;;;;;;10.20;9.10;;;;;;;;;;5112278;28;20076;-73
2021/09/18 04:59:03;;;;;;;11.82;9.85;;;;;;;;;;5107507;28;20043;-75
2021/09/18 05:01:29;;;;;;;11.15;8.85;;;;;;;;;;5110293;28;20016;-74
2021/09/18 05:03:56;;;;;;;10.95;8.95;;;;;;;;;;5112014;28;20417;-73
2021/09/18 05:06:22;;;;;;;14.30;9.10;;;;;;;;;;5111739;28;20030;-81
2021/09/18 05:09:03;;;;;;;;;;;;;;;;;;;;;
2021/09/18 05:11:29;;;;;;;10.95;9.48;;;;;;;;;;5108524;28;20039;-76
2021/09/18 05:13:57;;;;;;;11.13;9.50;;;;;;;;;;5109419;28;20071;-77
2021/09/18 05:16:23;;;;;;;14.07;9.40;;;;;;;;;;5113065;28;20032;-76
2021/09/18 05:18:49;;;;;;;11.75;8.57;;;;;;;;;;5111604;28;20028;-80
2021/09/18 05:21:15;;;;;;;10.60;9.50;;;;;;;;;;5111303;28;20084;-81
2021/09/18 05:23:45;;;;;;;17.25;9.70;;;;;;;;;;5111275;28;20408;-82
2021/09/18 05:26:11;;;;;;;14.35;9.88;;;;;;;;;;5110963;28;20026;-76
2021/09/18 05:28:38;;;;;;;9.90;8.75;;;;;;;;;;5111844;28;20087;-73
2021/09/18 05:31:04;;;;;;;14.07;9.80;;;;;;;;;;5109635;28;20489;-69
2021/09/18 05:33:30;;;;;;;12.57;9.23;;;;;;;;;;5112010;28;20028;-69
2021/09/18 05:35:56;;;;;;;10.40;9.30;;;;;;;;;;5108911;28;20020;-75
2021/09/18 05:38:23;;;;;;;11.63;9.73;;;;;;;;;;5109745;28;20159;-74
2021/09/18 05:40:49;;;;;;;11.10;8.55;;;;;;;;;;5111437;28;20026;-76
2021/09/18 05:43:15;;;;;;;11.70;9.50;;;;;;;;;;5111688;28;20473;-74
2021/09/18 05:45:41;;;;;;;11.90;9.18;;;;;;;;;;5111933;28;20067;-75
2021/09/18 05:48:07;;;;;;;12.68;9.10;;;;;;;;;;5111518;28;20024;-71
2021/09/18 05:50:35;;;;;;;15.20;8.73;;;;;;;;;;5111250;28;20024;-74
2021/09/18 05:53:04;;;;;;;9.68;8.25;;;;;;;;;;5110020;28;20032;-72
2021/09/18 05:55:30;;;;;;;12.10;8.70;;;;;;;;;;5111043;28;20512;-77
2021/09/18 05:57:56;;;;;;;9.60;8.60;;;;;;;;;;5116963;28;20037;-73
2021/09/18 06:00:25;;;;;;;11.10;8.10;;;;;;;;;;5110536;28;20016;-75
2021/09/18 06:02:51;;;;;;;10.38;7.80;;;;;;;;;;5113980;28;20060;-75
2021/09/18 06:05:17;;;;;;;9.23;7.88;;;;;;;;;;5110831;28;20024;-79
2021/09/18 06:07:43;;;;;;;11.00;8.10;;;;;;;;;;5111109;28;20098;-79
2021/09/18 06:10:13;;;;;;;8.57;7.65;;;;;;;;;;5108689;28;20023;-73
2021/09/18 06:12:39;;;;;;;11.25;8.05;;;;;;;;;;5111569;28;20035;-77
2021/09/18 06:15:29;;;;;;;10.52;7.60;;;;;;;;;;5114682;28;20040;-70
2021/09/18 06:17:55;;;;;;;8.40;7.22;;;;;;;;;;5110120;28;20023;-79
2021/09/18 06:20:21;;;;;;;9.52;7.30;;;;;;;;;;5095521;28;20051;-72
2021/09/18 06:22:47;;;;;;;9.02;7.13;;;;;;;;;;5115182;28;20031;-77
2021/09/18 06:25:13;;;;;;;9.70;7.28;;;;;;;;;;5117709;27;20026;-77
2021/09/18 06:27:40;;;;;;;9.63;7.72;;;;;;;;;;5115576;27;20080;-85
2021/09/18 06:30:07;;;;;;;9.43;7.10;;;;;;;;;;5111741;28;20667;-80
2021/09/18 06:32:33;;;;;;;9.65;7.10;;;;;;;;;;5099377;28;20047;-81
2021/09/18 06:35:00;;;;;;;11.98;7.25;;;;;;;;;;5113987;28;20437;-79
2021/09/18 06:37:33;;;;;;;110.22;13.10;;;;;;;;;;5103228;27;20356;-79
2021/09/18 06:39:59;;;;;;;9.02;7.57;;;;;;;;;;5096085;28;20034;-71
2021/09/18 06:42:25;;;;;;;10.48;7.72;;;;;;;;;;5112811;28;20036;-75
2021/09/18 06:44:51;;;;;;;11.00;7.53;;;;;;;;;;5115234;28;20076;-78
2021/09/18 06:47:17;;;;;;;12.35;7.70;;;;;;;;;;5114650;28;20035;-78
2021/09/18 06:49:43;;;;;;;9.93;7.63;;;;;;;;;;5113227;28;20074;-74
2021/09/18 06:52:10;;;;;;;7.95;6.88;;;;;;;;;;5114394;28;20504;-73
2021/09/18 06:54:43;;;;;;;10.20;7.38;;;;;;;;;;5095520;28;20487;-75
2021/09/18 06:57:11;;;;;;;;;;;;;;;;;;5095350;28;20031;-75
2021/09/18 06:59:38;;;;;;;9.60;7.43;;;;;;;;;;5113831;28;19907;-75
2021/09/18 07:02:05;;;;;;;9.57;6.60;;;;;;;;;;5112317;28;20028;-78
2021/09/18 07:04:37;;;;;;;7.35;6.65;;;;;;;;;;5090249;28;20055;-77
2021/09/18 07:07:06;;;;;;;11.02;7.18;;;;;;;;;;5113147;28;20028;-79
2021/09/18 07:09:32;;;;;;;10.38;7.55;;;;;;;;;;5114077;28;20020;-72
2021/09/18 07:11:58;;;;;;;9.15;7.10;;;;;;;;;;5114027;28;20030;-78
2021/09/18 07:14:24;;;;;;;11.90;7.00;;;;;;;;;;5112813;28;20030;-80
2021/09/18 07:16:51;;;;;;;16.40;7.15;;;;;;;;;;5095508;28;20101;-73
2021/09/18 07:19:17;;;;;;;10.75;6.45;;;;;;;;;;5094611;28;20028;-79
2021/09/18 07:21:53;;;;;;;10.70;7.03;;;;;;;;;;5114077;28;20047;-77
2021/09/18 07:24:19;;;;;;;9.38;6.88;;;;;;;;;;5094223;28;20032;-72
2021/09/18 07:26:48;;;;;;;9.18;7.28;;;;;;;;;;5114217;27;20019;-77
2021/09/18 07:29:14;;;;;;;10.55;7.13;;;;;;;;;;5094834;28;20069;-75
2021/09/18 07:31:40;;;;;;;9.70;7.28;;;;;;;;;;5113645;28;20048;-71
2021/09/18 07:34:12;;;;;;;7.97;6.78;;;;;;;;;;5112253;27;20025;-79
2021/09/18 07:36:47;;;;;;;12.77;7.00;;;;;;;;;;5104449;28;20023;-75
2021/09/18 07:39:13;;;;;;;16.05;7.90;;;;;;;;;;5094120;28;20026;-72
2021/09/18 07:41:41;;;;;;;10.85;7.05;;;;;;;;;;5113684;28;20123;-73
2021/09/18 07:44:07;;;;;;;9.43;6.80;;;;;;;;;;5112432;28;20020;-76
2021/09/18 07:46:33;;;;;;;10.20;7.45;;;;;;;;;;5103595;28;20024;-75
2021/09/18 07:49:00;;;;;;;9.25;7.22;;;;;;;;;;5113041;28;20023;-71
2021/09/18 07:51:26;;;;;;;8.45;7.30;;;;;;;;;;5112691;28;20043;-72
2021/09/18 07:53:52;;;;;;;11.25;8.00;;;;;;;;;;5112826;28;20024;-72
2021/09/18 07:56:20;;;;;;;8.95;7.70;;;;;;;;;;5110708;28;20027;-73
2021/09/18 07:58:46;;;;;;;9.52;7.65;;;;;;;;;;5112670;28;20020;-71
2021/09/18 08:01:13;;;;;;;9.70;7.57;;;;;;;;;;5111589;28;20599;-72
2021/09/18 08:03:39;;;;;;;12.38;7.50;;;;;;;;;;5112815;28;20056;-72
2021/09/18 08:06:23;;;;;;;14.43;7.63;;;;;;;;;;5112046;28;20034;-80
2021/09/18 08:08:54;;;;;;;11.15;7.15;;;;;;;;;;5111320;28;20030;-73
2021/09/18 08:11:23;;;;;;;9.32;6.70;;;;;;;;;;5110964;28;20028;-75
2021/09/18 08:13:52;;;;;;;8.30;6.88;;;;;;;;;;5091716;28;20519;-78
2021/09/18 08:16:28;;;;;;;7.43;5.43;;;;;;;;;;5112718;28;20028;-76
2021/09/18 08:18:54;;;;;;;6.30;5.15;;;;;;;;;;5088378;28;20150;-74
2021/09/18 08:21:26;;;;;;;7.97;5.55;;;;;;;;;;5094047;28;20044;-73
2021/09/18 08:24:01;;;;;;;7.13;5.00;;;;;;;;;;5094325;28;20039;-73
2021/09/18 08:26:30;;;;;;;6.85;5.82;;;;;;;;;;5096096;28;20126;-73
2021/09/18 08:29:01;;;;;;;7.00;5.13;;;;;;;;;;5092685;28;20032;-74
2021/09/18 08:31:27;;;;;;;7.97;5.50;;;;;;;;;;5111822;28;20504;-76
2021/09/18 08:33:56;;;;;;;8.00;5.00;;;;;;;;;;5111825;28;20106;-74
2021/09/18 08:36:23;;;;;;;7.20;5.20;;;;;;;;;;5110679;28;20024;-73
2021/09/18 08:38:49;;;;;;;7.13;5.30;;;;;;;;;;5112191;28;20020;-70
2021/09/18 08:41:38;;;;;;;7.93;5.10;;;;;;;;;;5112332;28;20418;-72
2021/09/18 08:44:34;;;;;;;7.65;5.10;;;;;;;;;;5092322;28;20040;-74
2021/09/18 08:47:01;;;;;;;6.60;5.03;;;;;;;;;;5089935;28;20028;-75
2021/09/18 08:49:28;;;;;;;6.63;4.95;;;;;;;;;;5093967;28;20101;-76
2021/09/18 08:51:57;;;;;;;8.73;4.72;;;;;;;;;;5112112;27;20036;-73
2021/09/18 08:54:23;;;;;;;5.65;5.00;;;;;;;;;;5093426;28;20448;-72
2021/09/18 08:56:49;;;;;;;8.20;4.85;;;;;;;;;;5093339;28;20032;-72
2021/09/18 08:59:15;;;;;;;7.63;4.97;;;;;;;;;;5111681;28;20089;-73
2021/09/18 09:01:42;;;;;;;6.85;5.10;;;;;;;;;;5112457;28;20085;-76
2021/09/18 09:04:08;;;;;;;6.97;5.20;;;;;;;;;;5091687;28;20027;-76
2021/09/18 09:06:47;;;;;;;6.82;5.20;;;;;;;;;;5111852;28;20061;-88
2021/09/18 09:09:13;;;;;;;6.85;5.00;;;;;;;;;;5110340;28;20059;-75
2021/09/18 09:11:50;;;;;;;6.93;5.28;;;;;;;;;;5111568;28;20035;-74
2021/09/18 09:14:16;;;;;;;6.82;5.15;;;;;;;;;;5108617;28;20085;-77
2021/09/18 09:17:04;;;;;;;5.35;4.70;;;;;;;;;;5111447;28;20098;-76
2021/09/18 09:19:40;;;;;;;7.45;4.97;;;;;;;;;;5093035;28;20028;-74
2021/09/18 09:22:06;;;;;;;14.25;9.23;;;;;;;;;;5111578;28;20070;-83
2021/09/18 09:24:32;;;;;;;5.68;4.75;;;;;;;;;;5107456;28;20081;-71
2021/09/18 09:27:05;;;;;;;6.25;5.35;;;;;;;;;;5112602;28;20446;-73
2021/09/18 09:29:48;;;;;;;5.95;4.75;;;;;;;;;;5110073;28;20036;-72
2021/09/18 09:32:34;;;;;;;7.55;4.63;;;;;;;;;;5110047;28;20047;-75
2021/09/18 09:35:03;;;;;;;6.93;4.75;;;;;;;;;;5111877;28;20117;-72
2021/09/18 09:37:29;;;;;;;6.60;4.90;;;;;;;;;;5111261;28;20072;-73
2021/09/18 09:39:56;;;;;;;8.07;5.25;;;;;;;;;;5111972;28;20020;-70
2021/09/18 09:42:28;;;;;;;9.93;4.63;;;;;;;;;;5110957;28;20032;-72
2021/09/18 09:45:08;;;;;;;6.47;4.68;;;;;;;;;;5112313;28;20020;-73
2021/09/18 09:47:34;;;;;;;9.20;3.90;;;;;;;;;;5114065;28;20028;-73
2021/09/18 09:50:03;;;;;;;6.13;3.60;;;;;;;;;;5116426;28;20151;-72
2021/09/18 09:52:33;;;;;;;4.93;3.38;;;;;;;;;;5115528;28;20077;-73
2021/09/18 09:55:09;;;;;;;4.75;3.40;;;;;;;;;;5116259;28;20020;-73
2021/09/18 09:57:35;;;;;;;4.85;3.40;;;;;;;;;;5115869;28;20036;-67
2021/09/18 10:00:03;;;;;;;3.75;3.00;;;;;;;;;;5115928;28;20110;-73
2021/09/18 10:02:30;;;;;;;6.95;3.45;;;;;;;;;;5115740;28;20077;-71
2021/09/18 10:04:56;;;;;;;4.78;2.90;;;;;;;;;;5107375;28;20069;-72
2021/09/18 10:07:23;;;;;;;9.05;3.20;;;;;;;;;;5115997;28;20047;-71
2021/09/18 10:09:49;;;;;;;4.15;3.20;;;;;;;;;;5114999;28;20027;-73
2021/09/18 10:12:15;;;;;;;3.72;3.20;;;;;;;;;;5115839;28;20123;-73
2021/09/18 10:14:45;;;;;;;4.35;3.25;;;;;;;;;;5115363;28;20106;-73
2021/09/18 10:17:11;;;;;;;4.35;3.00;;;;;;;;;;5107164;28;20024;-73
2021/09/18 10:24:48;;;;;;;6.20;3.15;;;;;;;;;;5116386;27;20517;-70
2021/09/18 10:27:15;;;;;;;3.90;3.30;;;;;;;;;;5115405;28;20031;-73
2021/09/18 10:29:43;;;;;;;4.60;3.10;;;;;;;;;;5115431;28;20024;-73
2021/09/18 10:32:09;;;;;;;8.18;3.70;;;;;;;;;;5115613;28;20059;-73
2021/09/18 10:34:35;;;;;;;6.47;3.92;;;;;;;;;;5115491;28;20023;-72
2021/09/18 10:37:01;;;;;;;6.30;4.07;;;;;;;;;;5115197;28;20110;-73
2021/09/18 10:39:30;;;;;;;6.78;3.88;;;;;;;;;;5115371;28;20484;-73
2021/09/18 10:41:57;;;;;;;5.47;3.13;;;;;;;;;;5115214;28;20151;-72
2021/09/18 10:44:24;;;;;;;3.95;2.83;;;;;;;;;;5115048;28;20476;-73
2021/09/18 10:46:52;;;;;;;3.10;2.80;;;;;;;;;;5115130;28;20058;-72
2021/09/18 10:52:22;;;;;;;3.00;2.60;;;;;;;;;;5114880;28;20462;-73
2021/09/18 10:55:00;;;;;;;4.45;2.55;;;;;;;;;;5114777;28;20035;-73
2021/09/18 10:57:26;;;;;;;5.38;2.65;;;;;;;;;;5108180;28;20031;-72
2021/09/18 10:59:53;;;;;;;6.07;2.70;;;;;;;;;;5108489;28;20130;-66
2021/09/18 11:02:32;;;;;;;3.03;2.38;;;;;;;;;;5114750;28;20115;-70
2021/09/18 11:04:58;;;;;;;2.97;2.10;;;;;;;;;;5114908;28;20051;-72
2021/09/18 11:07:43;;;;;;;4.07;2.20;;;;;;;;;;5114860;28;20377;-73
2021/09/18 11:10:10;;;;;;;3.22;2.50;;;;;;;;;;5114632;28;20028;-73
2021/09/18 11:12:36;;;;;;;3.08;2.40;;;;;;;;;;5114636;28;20066;-73
2021/09/18 11:15:04;;;;;;;3.42;2.40;;;;;;;;;;5114391;28;20027;-71
2021/09/18 11:17:34;;;;;;;3.90;2.50;;;;;;;;;;5113847;28;20039;-73
2021/09/18 11:20:19;;;;;;;4.93;2.30;;;;;;;;;;5114443;28;20028;-73
2021/09/18 11:22:52;;;;;;;2.60;2.08;;;;;;;;;;5108581;28;20028;-72
2021/09/18 11:25:31;;;;;;;2.30;2.10;;;;;;;;;;5114376;28;20473;-73
2021/09/18 11:28:01;;;;;;;2.67;2.20;;;;;;;;;;5109826;28;20031;-73
2021/09/18 11:30:42;;;;;;;3.60;2.25;;;;;;;;;;5114262;28;20408;-73
2021/09/18 11:33:09;;;;;;;3.75;2.13;;;;;;;;;;5110867;28;20047;-73
2021/09/18 11:35:36;;;;;;;4.85;2.40;;;;;;;;;;5114130;28;20385;-73
2021/09/18 11:38:04;;;;;;;2.78;2.30;;;;;;;;;;5114107;28;20426;-70
2021/09/18 11:40:31;;;;;;;4.70;3.05;;;;;;;;;;5113952;28;20038;-66
2021/09/18 11:42:58;;;;;;;4.35;2.10;;;;;;;;;;5114021;28;20024;-72
2021/09/18 11:45:25;;;;;;;3.15;2.35;;;;;;;;;;5113710;28;20022;-73
2021/09/18 11:47:56;;;;;;;3.03;2.05;;;;;;;;;;5113976;28;20057;-72
2021/09/18 11:50:33;;;;;;;3.22;2.08;;;;;;;;;;5113854;28;20560;-73
2021/09/18 11:53:00;;;;;;;4.65;2.40;;;;;;;;;;5113669;28;20054;-71
2021/09/18 11:55:40;;;;;;;4.00;2.35;;;;;;;;;;5109364;28;20047;-71
2021/09/18 11:58:09;;;;;;;4.93;2.30;;;;;;;;;;5113822;28;20435;-73
2021/09/18 12:00:37;;;;;;;2.88;2.30;;;;;;;;;;5113592;28;20027;-72
2021/09/18 12:03:03;;;;;;;4.00;2.03;;;;;;;;;;5113590;28;20084;-73
2021/09/18 12:05:29;;;;;;;2.25;2.05;;;;;;;;;;5113610;28;20098;-71
2021/09/18 12:07:56;;;;;;;2.28;1.98;;;;;;;;;;5113246;28;20481;-72
2021/09/18 12:10:22;;;;;;;4.45;2.10;;;;;;;;;;5108332;28;20107;-72
2021/09/18 12:12:54;;;;;;;6.70;2.70;;;;;;;;;;5113160;28;20036;-73
2021/09/18 12:15:33;;;;;;;3.50;2.13;;;;;;;;;;5113469;28;20016;-73
2021/09/18 12:17:59;;;;;;;2.15;2.00;;;;;;;;;;5100993;28;20445;-70
2021/09/18 12:20:27;;;;;;;2.75;2.15;;;;;;;;;;5112899;28;20551;-72
2021/09/18 12:22:53;;;;;;;2.25;1.83;;;;;;;;;;5112442;28;20489;-76
2021/09/18 12:25:23;;;;;;;2.42;2.00;;;;;;;;;;5113247;28;20102;-75
2021/09/18 12:27:54;;;;;;;6.20;2.20;;;;;;;;;;5113103;28;20505;-76
2021/09/18 12:30:24;;;;;;;4.00;2.58;;;;;;;;;;5112456;28;20031;-70
2021/09/18 12:33:01;;;;;;;7.18;2.45;;;;;;;;;;5108331;28;20043;-72
2021/09/18 12:35:37;;;;;;;3.90;2.03;;;;;;;;;;5110499;28;20027;-74
2021/09/18 12:38:03;;;;;;;3.53;2.03;;;;;;;;;;5092558;28;20057;-75
2021/09/18 12:40:37;;;;;;;6.18;2.42;;;;;;;;;;5112749;28;20028;-77
2021/09/18 12:43:22;;;;;;;4.80;2.20;;;;;;;;;;5109745;28;20032;-78
2021/09/18 12:45:49;;;;;;;6.53;2.17;;;;;;;;;;5102957;28;20035;-76
2021/09/18 12:48:17;;;;;;;5.88;2.40;;;;;;;;;;5111578;28;20077;-75
2021/09/18 12:50:47;;;;;;;10.27;2.45;;;;;;;;;;5109939;27;20469;-72
2021/09/18 12:53:16;;;;;;;6.60;2.22;;;;;;;;;;5110150;28;20027;-83
2021/09/18 12:56:02;;;;;;;5.03;2.45;;;;;;;;;;5110251;28;20023;-75
2021/09/18 12:58:28;;;;;;;3.22;2.15;;;;;;;;;;5111715;28;20558;-74
2021/09/18 13:01:01;;;;;;;2.67;1.90;;;;;;;;;;5109018;28;20069;-75
2021/09/18 13:03:27;;;;;;;5.03;2.22;;;;;;;;;;5112479;28;20418;-74
2021/09/18 13:05:59;;;;;;;5.20;2.50;;;;;;;;;;5112101;28;20094;-70
2021/09/18 13:08:25;;;;;;;3.22;2.30;;;;;;;;;;5110950;28;20015;-71
2021/09/18 13:10:51;;;;;;;6.88;2.50;;;;;;;;;;5111418;28;20556;-75
2021/09/18 13:13:34;;;;;;;4.50;2.47;;;;;;;;;;5092778;28;20054;-71
2021/09/18 13:16:04;;;;;;;11.35;3.78;;;;;;;;;;5111963;28;20381;-71
2021/09/18 13:18:30;;;;;;;4.88;2.58;;;;;;;;;;5107975;28;20047;-75
2021/09/18 13:20:56;;;;;;;14.20;3.65;;;;;;;;;;5108042;28;20051;-75
2021/09/18 13:23:22;;;;;;;28.30;5.70;;;;;;;;;;5111115;28;20069;-74
2021/09/18 13:25:49;;;;;;;3.88;2.03;;;;;;;;;;5111631;28;20035;-70
2021/09/18 13:28:15;;;;;;;3.70;2.40;;;;;;;;;;5113123;28;20020;-75
2021/09/18 13:30:41;;;;;;;5.32;2.83;;;;;;;;;;5111610;28;20653;-72
2021/09/18 13:33:07;;;;;;;3.75;2.80;;;;;;;;;;5111106;28;20044;-69
2021/09/18 13:35:33;;;;;;;4.07;2.60;;;;;;;;;;5111604;28;20027;-75
2021/09/18 13:37:59;;;;;;;3.30;2.30;;;;;;;;;;5112148;28;20027;-75
2021/09/18 13:40:25;;;;;;;3.92;2.30;;;;;;;;;;5111078;28;20366;-73
2021/09/18 13:42:51;;;;;;;5.82;2.50;;;;;;;;;;5108857;28;20034;-73
2021/09/18 13:45:17;;;;;;;8.55;3.00;;;;;;;;;;5109169;28;20077;-73
2021/09/18 13:47:44;;;;;;;4.57;2.33;;;;;;;;;;5111654;28;20027;-70
2021/09/18 13:50:10;;;;;;;5.47;2.53;;;;;;;;;;5111986;28;20019;-72
2021/09/18 13:52:36;;;;;;;2.90;2.35;;;;;;;;;;5111241;28;20044;-71
2021/09/18 13:55:03;;;;;;;3.58;2.30;;;;;;;;;;5111389;28;20019;-72
2021/09/18 13:57:29;;;;;;;3.72;2.30;;;;;;;;;;5111252;28;20038;-76
2021/09/18 13:59:55;;;;;;;3.65;2.30;;;;;;;;;;5111387;28;20080;-72
2021/09/18 14:02:21;;;;;;;3.53;2.38;;;;;;;;;;5111613;28;20042;-74
2021/09/18 14:04:47;;;;;;;2.88;2.30;;;;;;;;;;5110965;28;20069;-68
2021/09/18 14:07:13;;;;;;;8.13;3.08;;;;;;;;;;5111489;28;20052;-71
2021/09/18 14:09:39;;;;;;;3.55;2.20;;;;;;;;;;5111171;28;20034;-70
2021/09/18 14:12:05;;;;;;;7.07;2.60;;;;;;;;;;5111171;28;20092;-68
2021/09/18 14:14:31;;;;;;;4.43;2.33;;;;;;;;;;5108630;28;20023;-75
2021/09/18 14:16:58;;;;;;;9.30;2.55;;;;;;;;;;5111272;28;20023;-74
2021/09/18 14:19:26;;;;;;;4.82;2.20;;;;;;;;;;5111770;28;20015;-75
2021/09/18 14:21:52;;;;;;;3.50;2.40;;;;;;;;;;5111236;28;20525;-72
2021/09/18 14:24:18;;;;;;;3.75;2.47;;;;;;;;;;5110937;28;20481;-73
2021/09/18 14:26:44;;;;;;;8.65;3.00;;;;;;;;;;5112151;28;20780;-69
2021/09/18 14:29:10;;;;;;;2.72;2.30;;;;;;;;;;5111319;28;20072;-74
2021/09/18 14:31:37;;;;;;;5.38;2.60;;;;;;;;;;5111528;28;20037;-71
2021/09/18 14:34:03;;;;;;;3.90;2.38;;;;;;;;;;5111210;28;20031;-74
2021/09/18 14:36:32;;;;;;;2.97;2.33;;;;;;;;;;5113056;28;20024;-75
2021/09/18 14:38:58;;;;;;;2.60;2.28;;;;;;;;;;5114710;28;20027;-69
2021/09/18 14:41:25;;;;;;;3.38;2.38;;;;;;;;;;5113310;28;20050;-75
2021/09/18 14:43:51;;;;;;;2.35;2.15;;;;;;;;;;5110819;28;20032;-74
2021/09/18 14:46:17;;;;;;;3.53;2.40;;;;;;;;;;5111718;28;20581;-74
2021/09/18 14:48:43;;;;;;;3.00;2.30;;;;;;;;;;5113026;28;20050;-72
2021/09/18 14:51:09;;;;;;;5.43;2.78;;;;;;;;;;5113118;28;20076;-76
2021/09/18 14:53:36;;;;;;;2.85;2.50;;;;;;;;;;5114001;28;20036;-74